sensor_id;sensor_type;location;lat;lon;timestamp;pressure;altitude;pressure_sealevel;temperature;humidity
61526;BME280;47394;41.366;-8.738;2022-09-09T00:00:18;76626.16;;;-144.74;100.00
61526;BME280;47394;41.366;-8.738;2022-09-09T00:02:21;76626.16;;;-144.74;100.00
61526;BME280;47394;41.366;-8.738;2022-09-09T00:04:29;76624.16;;;-144.74;100.00
61526;BME280;47394;41.366;-8.738;2022-09-09T00:06:32;76614.13;;;-144.74;100.00
61526;BME280;47394;41.366;-8.738;2022-09-09T00:08:48;76608.09;;;-144.74;100.00
61526;BME280;47394;41.366;-8.738;2022-09-09T00:10:58;76604.06;;;-144.74;100.00
61526;BME280;47394;41.366;-8.738;2022-09-09T00:13:19;76606.06;;;-144.74;100.00
61526;BME280;47394;41.366;-8.738;2022-09-09T00:15:37;76600.06;;;-144.74;100.00
61526;BME280;47394;41.366;-8.738;2022-09-09T00:17:45;76594.03;;;-144.74;100.00
61526;BME280;47394;41.366;-8.738;2022-09-09T00:19:50;76602.06;;;-144.74;100.00
61526;BME280;47394;41.366;-8.738;2022-09-09T00:22:19;76600.06;;;-144.74;100.00
61526;BME280;47394;41.366;-8.738;2022-09-09T00:26:45;76596.03;;;-144.74;100.00
61526;BME280;47394;41.366;-8.738;2022-09-09T00:28:58;76602.06;;;-144.74;100.00
61526;BME280;47394;41.366;-8.738;2022-09-09T00:31:10;76596.03;;;-144.74;100.00
61526;BME280;47394;41.366;-8.738;2022-09-09T00:33:13;76594.03;;;-144.74;100.00
61526;BME280;47394;41.366;-8.738;2022-09-09T00:35:31;76583.97;;;-144.74;100.00
61526;BME280;47394;41.366;-8.738;2022-09-09T00:37:32;76592.00;;;-144.74;100.00
61526;BME280;47394;41.366;-8.738;2022-09-09T00:39:42;76579.97;;;-144.74;100.00
61526;BME280;47394;41.366;-8.738;2022-09-09T00:46:28;76602.06;;;-144.74;100.00
61526;BME280;47394;41.366;-8.738;2022-09-09T00:57:33;76620.13;;;-144.74;100.00
61526;BME280;47394;41.366;-8.738;2022-09-09T00:59:46;76626.16;;;-144.74;100.00
61526;BME280;47394;41.366;-8.738;2022-09-09T01:01:48;76622.16;;;-144.74;100.00
61526;BME280;47394;41.366;-8.738;2022-09-09T01:10:50;76606.06;;;-144.74;100.00
61526;BME280;47394;41.366;-8.738;2022-09-09T01:12:52;76608.09;;;-144.74;100.00
61526;BME280;47394;41.366;-8.738;2022-09-09T01:15:19;76602.06;;;-144.74;100.00
61526;BME280;47394;41.366;-8.738;2022-09-09T01:17:29;76600.06;;;-144.74;100.00
61526;BME280;47394;41.366;-8.738;2022-09-09T01:20:23;76598.03;;;-144.74;100.00
61526;BME280;47394;41.366;-8.738;2022-09-09T01:22:05;76594.03;;;-144.74;100.00
61526;BME280;47394;41.366;-8.738;2022-09-09T01:26:46;76604.06;;;-144.74;100.00
61526;BME280;47394;41.366;-8.738;2022-09-09T01:28:57;76596.03;;;-144.74;100.00
61526;BME280;47394;41.366;-8.738;2022-09-09T01:31:11;76614.13;;;-144.74;100.00
61526;BME280;47394;41.366;-8.738;2022-09-09T01:33:18;76618.13;;;-144.74;100.00
61526;BME280;47394;41.366;-8.738;2022-09-09T01:37:23;76606.06;;;-144.74;100.00
61526;BME280;47394;41.366;-8.738;2022-09-09T01:39:24;76594.03;;;-144.74;100.00
61526;BME280;47394;41.366;-8.738;2022-09-09T01:41:33;76592.00;;;-144.74;100.00
61526;BME280;47394;41.366;-8.738;2022-09-09T01:43:37;76590.00;;;-144.74;100.00
61526;BME280;47394;41.366;-8.738;2022-09-09T01:45:39;76588.00;;;-144.74;100.00
61526;BME280;47394;41.366;-8.738;2022-09-09T01:47:42;76590.00;;;-144.74;100.00
61526;BME280;47394;41.366;-8.738;2022-09-09T01:49:52;76583.97;;;-144.74;100.00
61526;BME280;47394;41.366;-8.738;2022-09-09T01:51:57;76575.94;;;-144.74;100.00
61526;BME280;47394;41.366;-8.738;2022-09-09T01:54:04;76579.97;;;-144.74;100.00
61526;BME280;47394;41.366;-8.738;2022-09-09T01:56:19;76569.91;;;-144.74;100.00
61526;BME280;47394;41.366;-8.738;2022-09-09T01:58:55;76565.91;;;-144.74;100.00
61526;BME280;47394;41.366;-8.738;2022-09-09T02:01:24;76563.91;;;-144.74;100.00
61526;BME280;47394;41.366;-8.738;2022-09-09T02:03:29;76565.91;;;-144.74;100.00
61526;BME280;47394;41.366;-8.738;2022-09-09T02:08:05;76553.84;;;-144.74;100.00
61526;BME280;47394;41.366;-8.738;2022-09-09T02:10:53;76543.81;;;-144.74;100.00
61526;BME280;47394;41.366;-8.738;2022-09-09T02:13:13;76541.78;;;-144.74;100.00
61526;BME280;47394;41.366;-8.738;2022-09-09T02:15:23;76537.78;;;-144.74;100.00
61526;BME280;47394;41.366;-8.738;2022-09-09T02:17:31;76535.78;;;-144.74;100.00
61526;BME280;47394;41.366;-8.738;2022-09-09T02:19:46;76537.78;;;-144.74;100.00
61526;BME280;47394;41.366;-8.738;2022-09-09T02:21:59;76537.78;;;-144.74;100.00
61526;BME280;47394;41.366;-8.738;2022-09-09T02:24:04;76543.81;;;-144.74;100.00
61526;BME280;47394;41.366;-8.738;2022-09-09T02:26:11;76551.84;;;-144.74;100.00
61526;BME280;47394;41.366;-8.738;2022-09-09T02:28:17;76545.81;;;-144.74;100.00
61526;BME280;47394;41.366;-8.738;2022-09-09T02:30:21;76541.78;;;-144.74;100.00
61526;BME280;47394;41.366;-8.738;2022-09-09T02:32:29;76541.78;;;-144.74;100.00
61526;BME280;47394;41.366;-8.738;2022-09-09T02:34:36;76545.81;;;-144.74;100.00
61526;BME280;47394;41.366;-8.738;2022-09-09T02:36:40;76541.78;;;-144.74;100.00
61526;BME280;47394;41.366;-8.738;2022-09-09T02:38:44;76537.78;;;-144.74;100.00
61526;BME280;47394;41.366;-8.738;2022-09-09T02:40:48;76537.78;;;-144.74;100.00
61526;BME280;47394;41.366;-8.738;2022-09-09T02:42:49;76539.78;;;-144.74;100.00
61526;BME280;47394;41.366;-8.738;2022-09-09T02:44:52;76529.75;;;-144.74;100.00
61526;BME280;47394;41.366;-8.738;2022-09-09T02:49:41;76541.78;;;-144.74;100.00
61526;BME280;47394;41.366;-8.738;2022-09-09T02:56:40;76549.84;;;-144.74;100.00
61526;BME280;47394;41.366;-8.738;2022-09-09T02:58:43;76545.81;;;-144.74;100.00
61526;BME280;47394;41.366;-8.738;2022-09-09T03:00:46;76541.78;;;-144.74;100.00
61526;BME280;47394;41.366;-8.738;2022-09-09T03:02:48;76537.78;;;-144.74;100.00
61526;BME280;47394;41.366;-8.738;2022-09-09T03:04:48;76537.78;;;-144.74;100.00
61526;BME280;47394;41.366;-8.738;2022-09-09T03:06:52;76539.78;;;-144.74;100.00
61526;BME280;47394;41.366;-8.738;2022-09-09T03:08:55;76535.78;;;-144.74;100.00
61526;BME280;47394;41.366;-8.738;2022-09-09T03:10:59;76537.78;;;-144.74;100.00
61526;BME280;47394;41.366;-8.738;2022-09-09T03:13:05;76543.81;;;-144.74;100.00
61526;BME280;47394;41.366;-8.738;2022-09-09T03:15:10;76553.84;;;-144.74;100.00
61526;BME280;47394;41.366;-8.738;2022-09-09T03:17:12;76555.84;;;-144.74;100.00
61526;BME280;47394;41.366;-8.738;2022-09-09T03:19:20;76539.78;;;-144.74;100.00
61526;BME280;47394;41.366;-8.738;2022-09-09T03:21:21;76545.81;;;-144.74;100.00
61526;BME280;47394;41.366;-8.738;2022-09-09T03:23:23;76539.78;;;-144.74;100.00
61526;BME280;47394;41.366;-8.738;2022-09-09T03:25:25;76529.75;;;-144.74;100.00
61526;BME280;47394;41.366;-8.738;2022-09-09T03:27:27;76523.72;;;-144.74;100.00
61526;BME280;47394;41.366;-8.738;2022-09-09T03:29:29;76529.75;;;-144.74;100.00
61526;BME280;47394;41.366;-8.738;2022-09-09T03:31:33;76525.72;;;-144.74;100.00
61526;BME280;47394;41.366;-8.738;2022-09-09T03:33:34;76517.69;;;-144.74;100.00
61526;BME280;47394;41.366;-8.738;2022-09-09T03:35:37;76523.72;;;-144.74;100.00
61526;BME280;47394;41.366;-8.738;2022-09-09T03:37:37;76517.69;;;-144.74;100.00
61526;BME280;47394;41.366;-8.738;2022-09-09T03:39:39;76527.75;;;-144.74;100.00
61526;BME280;47394;41.366;-8.738;2022-09-09T03:41:41;76523.72;;;-144.74;100.00
61526;BME280;47394;41.366;-8.738;2022-09-09T03:43:42;76521.72;;;-144.74;100.00
61526;BME280;47394;41.366;-8.738;2022-09-09T03:45:46;76529.75;;;-144.74;100.00
61526;BME280;47394;41.366;-8.738;2022-09-09T03:47:50;76533.75;;;-144.74;100.00
61526;BME280;47394;41.366;-8.738;2022-09-09T03:49:51;76535.78;;;-144.74;100.00
61526;BME280;47394;41.366;-8.738;2022-09-09T03:51:51;76529.75;;;-144.74;100.00
61526;BME280;47394;41.366;-8.738;2022-09-09T03:53:52;76525.72;;;-144.74;100.00
61526;BME280;47394;41.366;-8.738;2022-09-09T03:55:57;76525.72;;;-144.74;100.00
61526;BME280;47394;41.366;-8.738;2022-09-09T03:58:01;76521.72;;;-144.74;100.00
61526;BME280;47394;41.366;-8.738;2022-09-09T04:00:04;76515.69;;;-144.74;100.00
61526;BME280;47394;41.366;-8.738;2022-09-09T04:02:16;76517.69;;;-144.74;100.00
61526;BME280;47394;41.366;-8.738;2022-09-09T04:04:17;76521.72;;;-144.74;100.00
61526;BME280;47394;41.366;-8.738;2022-09-09T04:06:18;76509.66;;;-144.74;100.00
61526;BME280;47394;41.366;-8.738;2022-09-09T04:08:22;76507.66;;;-144.74;100.00
61526;BME280;47394;41.366;-8.738;2022-09-09T04:10:23;76503.63;;;-144.74;100.00
61526;BME280;47394;41.366;-8.738;2022-09-09T04:12:24;76501.63;;;-144.74;100.00
61526;BME280;47394;41.366;-8.738;2022-09-09T04:14:25;76499.63;;;-144.74;100.00
61526;BME280;47394;41.366;-8.738;2022-09-09T04:16:29;76499.63;;;-144.74;100.00
61526;BME280;47394;41.366;-8.738;2022-09-09T04:18:30;76499.63;;;-144.74;100.00
61526;BME280;47394;41.366;-8.738;2022-09-09T04:20:31;76503.63;;;-144.74;100.00
61526;BME280;47394;41.366;-8.738;2022-09-09T04:22:33;76505.63;;;-144.74;100.00
61526;BME280;47394;41.366;-8.738;2022-09-09T04:24:35;76509.66;;;-144.74;100.00
61526;BME280;47394;41.366;-8.738;2022-09-09T04:26:36;76505.63;;;-144.74;100.00
61526;BME280;47394;41.366;-8.738;2022-09-09T04:28:37;76505.63;;;-144.74;100.00
61526;BME280;47394;41.366;-8.738;2022-09-09T04:30:46;76515.69;;;-144.74;100.00
61526;BME280;47394;41.366;-8.738;2022-09-09T04:32:47;76519.69;;;-144.74;100.00
61526;BME280;47394;41.366;-8.738;2022-09-09T04:34:48;76525.72;;;-144.74;100.00
61526;BME280;47394;41.366;-8.738;2022-09-09T04:36:49;76525.72;;;-144.74;100.00
61526;BME280;47394;41.366;-8.738;2022-09-09T04:38:49;76527.75;;;-144.74;100.00
61526;BME280;47394;41.366;-8.738;2022-09-09T04:40:51;76527.75;;;-144.74;100.00
61526;BME280;47394;41.366;-8.738;2022-09-09T04:42:53;76525.72;;;-144.74;100.00
61526;BME280;47394;41.366;-8.738;2022-09-09T04:44:54;76537.78;;;-144.74;100.00
61526;BME280;47394;41.366;-8.738;2022-09-09T04:46:54;76537.78;;;-144.74;100.00
61526;BME280;47394;41.366;-8.738;2022-09-09T04:48:55;76537.78;;;-144.74;100.00
61526;BME280;47394;41.366;-8.738;2022-09-09T04:53:05;76541.78;;;-144.74;100.00
61526;BME280;47394;41.366;-8.738;2022-09-09T04:55:08;76543.81;;;-144.74;100.00
61526;BME280;47394;41.366;-8.738;2022-09-09T04:57:10;76541.78;;;-144.74;100.00
61526;BME280;47394;41.366;-8.738;2022-09-09T04:59:11;76543.81;;;-144.74;100.00
61526;BME280;47394;41.366;-8.738;2022-09-09T05:01:19;76541.78;;;-144.74;100.00
61526;BME280;47394;41.366;-8.738;2022-09-09T05:03:24;76541.78;;;-144.74;100.00
61526;BME280;47394;41.366;-8.738;2022-09-09T05:05:24;76551.84;;;-144.74;100.00
61526;BME280;47394;41.366;-8.738;2022-09-09T05:07:26;76555.84;;;-144.74;100.00
61526;BME280;47394;41.366;-8.738;2022-09-09T05:09:27;76543.81;;;-144.74;100.00
61526;BME280;47394;41.366;-8.738;2022-09-09T05:11:31;76545.81;;;-144.74;100.00
61526;BME280;47394;41.366;-8.738;2022-09-09T05:13:41;76543.81;;;-144.74;100.00
61526;BME280;47394;41.366;-8.738;2022-09-09T05:15:51;76539.78;;;-144.74;100.00
61526;BME280;47394;41.366;-8.738;2022-09-09T05:17:52;76543.81;;;-144.74;100.00
61526;BME280;47394;41.366;-8.738;2022-09-09T05:19:54;76547.81;;;-144.74;100.00
61526;BME280;47394;41.366;-8.738;2022-09-09T05:21:54;76545.81;;;-144.74;100.00
61526;BME280;47394;41.366;-8.738;2022-09-09T05:24:06;76553.84;;;-144.74;100.00
61526;BME280;47394;41.366;-8.738;2022-09-09T05:26:11;76551.84;;;-144.74;100.00
61526;BME280;47394;41.366;-8.738;2022-09-09T05:28:12;76551.84;;;-144.74;100.00
61526;BME280;47394;41.366;-8.738;2022-09-09T05:30:13;76553.84;;;-144.74;100.00
61526;BME280;47394;41.366;-8.738;2022-09-09T05:32:14;76559.88;;;-144.74;100.00
61526;BME280;47394;41.366;-8.738;2022-09-09T05:34:21;76565.91;;;-144.74;100.00
61526;BME280;47394;41.366;-8.738;2022-09-09T05:36:24;76561.88;;;-144.74;100.00
61526;BME280;47394;41.366;-8.738;2022-09-09T05:38:30;76565.91;;;-144.74;100.00
61526;BME280;47394;41.366;-8.738;2022-09-09T05:40:31;76567.91;;;-144.74;100.00
61526;BME280;47394;41.366;-8.738;2022-09-09T05:42:31;76559.88;;;-144.74;100.00
61526;BME280;47394;41.366;-8.738;2022-09-09T05:44:33;76559.88;;;-144.74;100.00
61526;BME280;47394;41.366;-8.738;2022-09-09T05:46:35;76571.94;;;-144.74;100.00
61526;BME280;47394;41.366;-8.738;2022-09-09T05:48:40;76571.94;;;-144.74;100.00
61526;BME280;47394;41.366;-8.738;2022-09-09T05:50:42;76575.94;;;-144.74;100.00
61526;BME280;47394;41.366;-8.738;2022-09-09T05:52:43;76573.94;;;-144.74;100.00
61526;BME280;47394;41.366;-8.738;2022-09-09T05:54:45;76583.97;;;-144.74;100.00
61526;BME280;47394;41.366;-8.738;2022-09-09T05:56:46;76592.00;;;-144.74;100.00
61526;BME280;47394;41.366;-8.738;2022-09-09T05:58:47;76596.03;;;-144.74;100.00
61526;BME280;47394;41.366;-8.738;2022-09-09T06:00:48;76594.03;;;-144.74;100.00
61526;BME280;47394;41.366;-8.738;2022-09-09T06:02:52;76598.03;;;-144.74;100.00
61526;BME280;47394;41.366;-8.738;2022-09-09T06:04:55;76600.06;;;-144.74;100.00
61526;BME280;47394;41.366;-8.738;2022-09-09T06:06:57;76608.09;;;-144.74;100.00
61526;BME280;47394;41.366;-8.738;2022-09-09T06:08:58;76606.06;;;-144.74;100.00
61526;BME280;47394;41.366;-8.738;2022-09-09T06:11:01;76614.13;;;-144.74;100.00
61526;BME280;47394;41.366;-8.738;2022-09-09T06:13:03;76628.19;;;-144.74;100.00
61526;BME280;47394;41.366;-8.738;2022-09-09T06:15:05;76628.19;;;-144.74;100.00
61526;BME280;47394;41.366;-8.738;2022-09-09T06:17:06;76626.16;;;-144.74;100.00
61526;BME280;47394;41.366;-8.738;2022-09-09T06:19:07;76632.19;;;-144.74;100.00
61526;BME280;47394;41.366;-8.738;2022-09-09T06:21:15;76634.19;;;-144.74;100.00
61526;BME280;47394;41.366;-8.738;2022-09-09T06:23:16;76640.22;;;-144.74;100.00
61526;BME280;47394;41.366;-8.738;2022-09-09T06:25:17;76644.25;;;-144.74;100.00
61526;BME280;47394;41.366;-8.738;2022-09-09T06:27:18;76644.25;;;-144.74;100.00
61526;BME280;47394;41.366;-8.738;2022-09-09T06:29:19;76652.28;;;-144.74;100.00
61526;BME280;47394;41.366;-8.738;2022-09-09T06:31:25;76642.22;;;-144.74;100.00
61526;BME280;47394;41.366;-8.738;2022-09-09T06:33:31;76650.28;;;-144.74;100.00
61526;BME280;47394;41.366;-8.738;2022-09-09T06:35:32;76654.28;;;-144.74;100.00
61526;BME280;47394;41.366;-8.738;2022-09-09T06:37:33;76652.28;;;-144.74;100.00
61526;BME280;47394;41.366;-8.738;2022-09-09T06:39:33;76650.28;;;-144.74;100.00
61526;BME280;47394;41.366;-8.738;2022-09-09T06:41:34;76650.28;;;-144.74;100.00
61526;BME280;47394;41.366;-8.738;2022-09-09T06:43:37;76642.22;;;-144.74;100.00
61526;BME280;47394;41.366;-8.738;2022-09-09T06:45:38;76640.22;;;-144.74;100.00
61526;BME280;47394;41.366;-8.738;2022-09-09T06:47:39;76650.28;;;-144.74;100.00
61526;BME280;47394;41.366;-8.738;2022-09-09T06:49:39;76644.25;;;-144.74;100.00
61526;BME280;47394;41.366;-8.738;2022-09-09T06:51:43;76650.28;;;-144.74;100.00
61526;BME280;47394;41.366;-8.738;2022-09-09T06:53:46;76666.34;;;-144.74;100.00
61526;BME280;47394;41.366;-8.738;2022-09-09T06:55:48;76670.34;;;-144.74;100.00
61526;BME280;47394;41.366;-8.738;2022-09-09T06:57:50;76666.34;;;-144.74;100.00
61526;BME280;47394;41.366;-8.738;2022-09-09T06:59:55;76662.31;;;-144.74;100.00
61526;BME280;47394;41.366;-8.738;2022-09-09T07:01:57;76666.34;;;-144.74;100.00
61526;BME280;47394;41.366;-8.738;2022-09-09T07:03:59;76664.34;;;-144.74;100.00
61526;BME280;47394;41.366;-8.738;2022-09-09T07:06:02;76662.31;;;-144.74;100.00
61526;BME280;47394;41.366;-8.738;2022-09-09T07:08:04;76656.28;;;-144.74;100.00
61526;BME280;47394;41.366;-8.738;2022-09-09T07:10:06;76660.31;;;-144.74;100.00
61526;BME280;47394;41.366;-8.738;2022-09-09T07:12:09;76658.31;;;-144.74;100.00
61526;BME280;47394;41.366;-8.738;2022-09-09T07:14:15;76656.28;;;-144.74;100.00
61526;BME280;47394;41.366;-8.738;2022-09-09T07:16:21;76660.31;;;-144.74;100.00
61526;BME280;47394;41.366;-8.738;2022-09-09T07:18:25;76662.31;;;-144.74;100.00
61526;BME280;47394;41.366;-8.738;2022-09-09T07:20:26;76658.31;;;-144.74;100.00
61526;BME280;47394;41.366;-8.738;2022-09-09T07:22:28;76662.31;;;-144.74;100.00
61526;BME280;47394;41.366;-8.738;2022-09-09T07:24:28;76658.31;;;-144.74;100.00
61526;BME280;47394;41.366;-8.738;2022-09-09T07:26:31;76658.31;;;-144.74;100.00
61526;BME280;47394;41.366;-8.738;2022-09-09T07:28:34;76670.34;;;-144.74;100.00
61526;BME280;47394;41.366;-8.738;2022-09-09T07:30:35;76674.38;;;-144.74;100.00
61526;BME280;47394;41.366;-8.738;2022-09-09T07:32:36;76672.38;;;-144.74;100.00
61526;BME280;47394;41.366;-8.738;2022-09-09T07:34:36;76664.34;;;-144.74;100.00
61526;BME280;47394;41.366;-8.738;2022-09-09T07:36:39;76658.31;;;-144.74;100.00
61526;BME280;47394;41.366;-8.738;2022-09-09T07:38:44;76650.28;;;-144.74;100.00
61526;BME280;47394;41.366;-8.738;2022-09-09T07:40:46;76644.25;;;-144.74;100.00
61526;BME280;47394;41.366;-8.738;2022-09-09T07:42:47;76634.19;;;-144.74;100.00
61526;BME280;47394;41.366;-8.738;2022-09-09T07:44:49;76636.22;;;-144.74;100.00
61526;BME280;47394;41.366;-8.738;2022-09-09T07:46:55;76648.25;;;-144.74;100.00
61526;BME280;47394;41.366;-8.738;2022-09-09T07:49:01;76656.28;;;-144.74;100.00
61526;BME280;47394;41.366;-8.738;2022-09-09T07:51:09;76650.28;;;-144.74;100.00
61526;BME280;47394;41.366;-8.738;2022-09-09T07:53:12;76660.31;;;-144.74;100.00
61526;BME280;47394;41.366;-8.738;2022-09-09T07:55:12;76662.31;;;-144.74;100.00
61526;BME280;47394;41.366;-8.738;2022-09-09T07:57:13;76654.28;;;-144.74;100.00
61526;BME280;47394;41.366;-8.738;2022-09-09T07:59:16;76672.38;;;-144.74;100.00
61526;BME280;47394;41.366;-8.738;2022-09-09T08:01:26;76672.38;;;-144.74;100.00
61526;BME280;47394;41.366;-8.738;2022-09-09T08:03:27;76666.34;;;-144.74;100.00
61526;BME280;47394;41.366;-8.738;2022-09-09T08:05:28;76656.28;;;-144.74;100.00
61526;BME280;47394;41.366;-8.738;2022-09-09T08:07:29;76646.25;;;-144.74;100.00
61526;BME280;47394;41.366;-8.738;2022-09-09T08:09:30;76648.25;;;-144.74;100.00
61526;BME280;47394;41.366;-8.738;2022-09-09T08:11:40;76646.25;;;-144.74;100.00
61526;BME280;47394;41.366;-8.738;2022-09-09T08:13:43;76638.22;;;-144.74;100.00
61526;BME280;47394;41.366;-8.738;2022-09-09T08:15:44;76640.22;;;-144.74;100.00
61526;BME280;47394;41.366;-8.738;2022-09-09T08:17:45;76640.22;;;-144.74;100.00
61526;BME280;47394;41.366;-8.738;2022-09-09T08:19:46;76632.19;;;-144.74;100.00
61526;BME280;47394;41.366;-8.738;2022-09-09T08:21:52;76636.22;;;-144.74;100.00
61526;BME280;47394;41.366;-8.738;2022-09-09T08:23:54;76634.19;;;-144.74;100.00
61526;BME280;47394;41.366;-8.738;2022-09-09T08:26:02;76614.13;;;-144.74;100.00
61526;BME280;47394;41.366;-8.738;2022-09-09T08:28:03;76602.06;;;-144.74;100.00
61526;BME280;47394;41.366;-8.738;2022-09-09T08:30:04;76594.03;;;-144.74;100.00
61526;BME280;47394;41.366;-8.738;2022-09-09T08:32:05;76583.97;;;-144.74;100.00
61526;BME280;47394;41.366;-8.738;2022-09-09T08:34:07;76569.91;;;-144.74;100.00
61526;BME280;47394;41.366;-8.738;2022-09-09T08:36:12;76557.88;;;-144.74;100.00
61526;BME280;47394;41.366;-8.738;2022-09-09T08:38:14;76565.91;;;-144.74;100.00
61526;BME280;47394;41.366;-8.738;2022-09-09T08:40:22;76557.88;;;-144.74;100.00
61526;BME280;47394;41.366;-8.738;2022-09-09T08:42:41;76559.88;;;-144.74;100.00
61526;BME280;47394;41.366;-8.738;2022-09-09T08:51:41;76561.88;;;-144.74;100.00
61526;BME280;47394;41.366;-8.738;2022-09-09T08:53:49;76545.81;;;-144.74;100.00
61526;BME280;47394;41.366;-8.738;2022-09-09T08:55:59;76549.84;;;-144.74;100.00
61526;BME280;47394;41.366;-8.738;2022-09-09T08:58:18;76529.75;;;-144.74;100.00
61526;BME280;47394;41.366;-8.738;2022-09-09T09:00:21;76509.66;;;-144.74;100.00
61526;BME280;47394;41.366;-8.738;2022-09-09T09:02:54;76493.59;;;-144.74;100.00
61526;BME280;47394;41.366;-8.738;2022-09-09T09:07:21;76483.53;;;-144.74;100.00
61526;BME280;47394;41.366;-8.738;2022-09-09T09:11:43;76483.53;;;-144.74;100.00
61526;BME280;47394;41.366;-8.738;2022-09-09T09:18:30;76455.41;;;-144.74;100.00
61526;BME280;47394;41.366;-8.738;2022-09-09T09:22:52;76429.31;;;-144.74;100.00
61526;BME280;47394;41.366;-8.738;2022-09-09T09:25:31;76411.22;;;-144.74;100.00
61526;BME280;47394;41.366;-8.738;2022-09-09T09:27:58;76405.22;;;-144.74;100.00
61526;BME280;47394;41.366;-8.738;2022-09-09T09:30:19;76413.25;;;-144.74;100.00
61526;BME280;47394;41.366;-8.738;2022-09-09T09:32:21;76407.22;;;-144.74;100.00
61526;BME280;47394;41.366;-8.738;2022-09-09T09:34:23;76403.19;;;-144.74;100.00
61526;BME280;47394;41.366;-8.738;2022-09-09T09:36:41;76421.28;;;-144.74;99.67
61526;BME280;47394;41.366;-8.738;2022-09-09T09:38:59;76415.25;;;-144.74;99.42
61526;BME280;47394;41.366;-8.738;2022-09-09T09:41:02;76415.25;;;-144.74;99.68
61526;BME280;47394;41.366;-8.738;2022-09-09T09:43:04;76393.16;;;-144.74;99.93
61526;BME280;47394;41.366;-8.738;2022-09-09T09:45:33;76377.09;;;-144.74;99.86
61526;BME280;47394;41.366;-8.738;2022-09-09T09:47:36;76379.09;;;-144.74;98.57
61526;BME280;47394;41.366;-8.738;2022-09-09T09:49:55;76379.09;;;-144.74;97.60
61526;BME280;47394;41.366;-8.738;2022-09-09T09:52:02;76365.03;;;-144.74;97.74
61526;BME280;47394;41.366;-8.738;2022-09-09T09:54:24;76357.00;;;-144.74;97.04
61526;BME280;47394;41.366;-8.738;2022-09-09T09:56:31;76377.09;;;-144.74;96.58
61526;BME280;47394;41.366;-8.738;2022-09-09T10:00:51;76383.09;;;-144.74;96.29
61526;BME280;47394;41.366;-8.738;2022-09-09T10:02:55;76371.06;;;-144.74;96.53
61526;BME280;47394;41.366;-8.738;2022-09-09T10:05:18;76338.91;;;-144.74;96.76
61526;BME280;47394;41.366;-8.738;2022-09-09T10:07:23;76316.81;;;-144.74;96.80
61526;BME280;47394;41.366;-8.738;2022-09-09T10:09:26;76296.75;;;-144.74;96.01
61526;BME280;47394;41.366;-8.738;2022-09-09T10:11:44;76278.66;;;-144.74;95.46
61526;BME280;47394;41.366;-8.738;2022-09-09T10:16:41;76246.53;;;-144.74;92.73
61526;BME280;47394;41.366;-8.738;2022-09-09T10:21:07;76212.38;;;-144.74;91.30
61526;BME280;47394;41.366;-8.738;2022-09-09T10:23:17;76210.38;;;-144.74;89.45
61526;BME280;47394;41.366;-8.738;2022-09-09T10:36:47;76192.28;;;-144.74;85.46
61526;BME280;47394;41.366;-8.738;2022-09-09T10:39:14;76178.22;;;-144.74;85.12
61526;BME280;47394;41.366;-8.738;2022-09-09T10:50:39;76212.38;;;-144.74;86.69
61526;BME280;47394;41.366;-8.738;2022-09-09T10:55:07;76188.28;;;-144.74;86.32
61526;BME280;47394;41.366;-8.738;2022-09-09T10:59:24;76152.13;;;-144.74;85.29
61526;BME280;47394;41.366;-8.738;2022-09-09T11:03:53;76168.19;;;-144.74;84.72
61526;BME280;47394;41.366;-8.738;2022-09-09T11:06:06;76140.06;;;-144.74;84.37
61526;BME280;47394;41.366;-8.738;2022-09-09T11:08:15;76138.06;;;-144.74;84.08
61526;BME280;47394;41.366;-8.738;2022-09-09T11:10:32;76138.06;;;-144.74;84.22
61526;BME280;47394;41.366;-8.738;2022-09-09T11:12:36;76172.22;;;-144.74;84.87
61526;BME280;47394;41.366;-8.738;2022-09-09T11:14:43;76140.06;;;-144.74;85.23
61526;BME280;47394;41.366;-8.738;2022-09-09T11:17:00;76160.16;;;-144.74;84.88
61526;BME280;47394;41.366;-8.738;2022-09-09T11:19:25;76192.28;;;-144.74;86.01
61526;BME280;47394;41.366;-8.738;2022-09-09T11:21:32;76238.50;;;-144.74;87.23
61526;BME280;47394;41.366;-8.738;2022-09-09T11:23:45;76236.47;;;-144.74;87.50
61526;BME280;47394;41.366;-8.738;2022-09-09T11:25:52;76258.56;;;-144.74;88.85
61526;BME280;47394;41.366;-8.738;2022-09-09T11:30:47;76228.44;;;-144.74;89.49
61526;BME280;47394;41.366;-8.738;2022-09-09T11:44:30;76176.22;;;-144.74;87.01
61526;BME280;47394;41.366;-8.738;2022-09-09T11:46:37;76180.25;;;-144.74;86.24
61526;BME280;47394;41.366;-8.738;2022-09-09T11:48:43;76192.28;;;-144.74;87.13
61526;BME280;47394;41.366;-8.738;2022-09-09T11:50:45;76202.34;;;-144.74;86.48
61526;BME280;47394;41.366;-8.738;2022-09-09T11:53:05;76206.34;;;-144.74;87.62
61526;BME280;47394;41.366;-8.738;2022-09-09T11:55:24;76206.34;;;-144.74;87.79
61526;BME280;47394;41.366;-8.738;2022-09-09T11:57:32;76168.19;;;-144.74;87.83
61526;BME280;47394;41.366;-8.738;2022-09-09T11:59:35;76170.19;;;-144.74;87.27
61526;BME280;47394;41.366;-8.738;2022-09-09T12:01:43;76156.13;;;-144.74;86.13
61526;BME280;47394;41.366;-8.738;2022-09-09T12:03:48;76162.16;;;-144.74;86.52
61526;BME280;47394;41.366;-8.738;2022-09-09T12:05:50;76182.25;;;-144.74;86.52
61526;BME280;47394;41.366;-8.738;2022-09-09T12:07:57;76166.19;;;-144.74;87.19
61526;BME280;47394;41.366;-8.738;2022-09-09T12:10:22;76176.22;;;-144.74;87.49
61526;BME280;47394;41.366;-8.738;2022-09-09T12:16:44;76166.19;;;-144.74;87.70
61526;BME280;47394;41.366;-8.738;2022-09-09T12:18:45;76150.13;;;-144.74;87.89
61526;BME280;47394;41.366;-8.738;2022-09-09T12:21:14;76138.06;;;-144.74;87.04
61526;BME280;47394;41.366;-8.738;2022-09-09T12:28:08;76176.22;;;-144.74;87.35
61526;BME280;47394;41.366;-8.738;2022-09-09T12:30:14;76158.16;;;-144.74;87.82
61526;BME280;47394;41.366;-8.738;2022-09-09T12:32:19;76164.19;;;-144.74;86.92